Zaliv Amerika — C4ZR2 — position and weather

sailwx.info

Track history (hours):
 
Tides and Currents Weather Stations Pressure Air Temp Water Temp Dewpoint Dewpoint Depression Visibility Wind Speed Wind Dir Waves Ship Positions

Zaliv Amerika

Last reported at 2014-Nov-11 15:26 UTC. Time now 2014-Nov-26 06:22 UTC.
Position N 37°49' E 122°32'.
Warning: this ship's position is 14 days out of date.

Length 243 m; draft 8.3 m.

Type: Tanker. MMSI: 210435000.

Date/timePositionNaut miles runAvg speedWind from/ knotsBaromVisibWave heightAir tempDewpointWater temp
2014-Nov-11 15:26N 37°49' E 122°32'10 9.7
2014-Nov-11 14:27N 37°50' E 122°20'12 9.9
2014-Nov-11 13:12N 37°51' E 122°05'610.0
2014-Nov-11 12:33N 37°52' E 121°57'1010.5
2014-Nov-11 11:33N 37°53' E 121°44'1110.8
2014-Nov-11 10:33N 37°54' E 121°30'1111.0
2014-Nov-11 09:33N 37°55' E 121°16'1310.7
2014-Nov-11 08:23N 37°58' E 121°01'  
2014-Nov-05 16:22N 37°57' E 121°15'2117.7
2014-Nov-05 15:10N 37°54' E 121°42'9 9.4
2014-Nov-05 14:11N 37°55' E 121°30'1315.8
2014-Nov-05 13:22N 37°53' E 121°47'1113.0
2014-Nov-05 12:33N 37°52' E 121°60'3210.7
2014-Nov-05 09:32N 37°48' E 122°41'  
Track history (hours):
 
Tides and Currents Weather Stations Pressure Air Temp Water Temp Dewpoint Dewpoint Depression Visibility Wind Speed Wind Dir Waves Ship Positions

Zaliv Amerika

Last reported at 2014-Nov-11 15:26 UTC. Time now 2014-Nov-26 06:22 UTC.
Position N 37°49' E 122°32'.
Warning: this ship's position is 14 days out of date.

Length 243 m; draft 8.3 m.

Type: Tanker. MMSI: 210435000.

Date/timePositionNaut miles runAvg speedWind from/ knotsBaromVisibWave heightAir tempDewpointWater temp
2014-Nov-11 15:26N 37°49' E 122°32'10 9.7
2014-Nov-11 14:27N 37°50' E 122°20'12 9.9
2014-Nov-11 13:12N 37°51' E 122°05'610.0
2014-Nov-11 12:33N 37°52' E 121°57'1010.5
2014-Nov-11 11:33N 37°53' E 121°44'1110.8
2014-Nov-11 10:33N 37°54' E 121°30'1111.0
2014-Nov-11 09:33N 37°55' E 121°16'1310.7
2014-Nov-11 08:23N 37°58' E 121°01'  
2014-Nov-05 16:22N 37°57' E 121°15'2117.7
2014-Nov-05 15:10N 37°54' E 121°42'9 9.4
2014-Nov-05 14:11N 37°55' E 121°30'1315.8
2014-Nov-05 13:22N 37°53' E 121°47'1113.0
2014-Nov-05 12:33N 37°52' E 121°60'3210.7
2014-Nov-05 09:32N 37°48' E 122°41'  

Dump ship's entire track history